Costa Mesa, California
Current Conditions -  °F | °C
As of 3:53 PM on Friday 21 Nov 2014 (Local Time) from KSNA Reporting Station
Scattered Clouds Scattered Clouds  
Wind Chill: 70°   Ceiling: Unl
Heat Index: 70°   Visibility: 10mi
Dew Point: 49°   Wind: 6mph
Humidity: 47%   Direction: 270°W
Pressure: 29.96"   Gusts: NA
Location:  33.66°N, 117.9°W
Report Text: KSNA 212353Z 27005KT 10SM FEW050 SCT250 21/09 A2996 RMK AO2 SLP142 T02110094 10228 20200 53005
Loading
Personal Weather Stations






























Interactive Weather Map New forecast layout! Learn more

10-Day Weather Forecast

Advertisements
Track Severe Weather on mobile